Terminal Aerodrome Forecast
Issued by NWS Louisville, KY

Home | Current Version | Previous Version | Text Only | Print | Product List | Glossary On
Versions: 1 2 3 4 5 6 7 8 9 10 11 12 13 14 15
000
FTUS43 KLMK 192300
TAFLEX
TAF
KLEX 192333Z 2000/2024 04005KT P6SM FEW020 BKN200
     FM201000 VRB03KT 5SM HZ SCT020 BKN050
     FM201400 VRB04KT P6SM SCT025=

USA.gov is the U.S. government's official web portal to all federal, state and local government web resources and services.